Toppenish, WA (98948)

3:35 PM PDT on September 02, 2014 (GMT -0700)
Fire Station #9 | Change Station
CLOSE
Current Station
Personal Weather Station
Location: Toppenish, WA
Elevation: 765 ft
Nearby Weather Stations
Active Advisory: Special Statement Active Notice: Public Information Statement

Elev 765 ft 46.38 °N, 120.32 °W | Updated 22 minutes ago

Clear
Clear
78.4 °F
Feels Like 79 °F
N
0.0
Wind Variable Wind from NNE
Gusts 4.0 mph

Today
High -- | Low -- °F
--% Chance of Precip.
Yesterday
High -- | Low -- °F
Precip. -- in
6:22 AM 7:37 PM
First Quarter, 55% visible
Pressure 29.72 in
Visibility 10.0 miles
Clouds Clear
Heat Index 79 °F
Dew Point 51 °F
Humidity 38%
Rainfall 0.00 in
Snow Depth Not available.
UV 6 out of 12
Pollen 4.30 out of 12
Air Quality Not available.
Flu Activity Not available.
METAR KYKM 022153Z VRB03KT 10SM CLR 27/07 A2973 RMK AO2 SLP063 T02670072

More Conditions Fewer Conditions

Pressure 29.72 in
Visibility 10.0 miles
Clouds Clear
Heat Index 79 °F
Dew Point 51 °F
Humidity 38%
Rainfall 0.00 in
Snow Depth Not available.
UV 6 out of 12
Pollen 4.30 out of 12
Air Quality Not available.
Flu Activity Not available.
METAR KYKM 022153Z VRB03KT 10SM CLR 27/07 A2973 RMK AO2 SLP063 T02670072

More Conditions Fewer Conditions

10-Day Weather Forecast

Almanac

Astronomy

Sep. 02, 2014 Rise Set
Actual Time 6:22 AM PDT 7:37 PM PDT
Civil Twilight 5:51 AM PDT 8:08 PM PDT
Nautical Twilight 5:14 AM PDT 8:46 PM PDT
Astronomical Twilight 4:34 AM PDT 9:25 PM PDT
Moon 2:36 PM PDT No Moon Set
Length of Visible Light 14h 17m
Length of Day
13h 15m
Tomorrow will be 3m 11s shorter.
First Quarter, 55% of the Moon is Illuminated
Today
First Quarter
Sep 8
Full
Sep 15
Last Quarter
Sep 24
New
Oct 1
First Quarter

Today's Extremes

State Highs State Lows

Community

WunderPhotos

Upload Photos

1,749,789 photos uploaded!

Nearby

Snow Depth

Station Depth Elevation
Trough 0 in 5300 ft
Grouse Camp 0 in 5380 ft
Morse Lake 0 in 5400 ft
Surprise Lakes 0 in 4250 ft
Stampede Pass 0 in 3860 ft

Earthquake Activity

City Distance Mag. Time & Date
No recent earthquake activity has been reported nearby.
Minimum magnitude displayed is 2.5.

Coastal Water Temperatures

Place Temperature
No Stations Reporting

Nearby Weather Stations